sensor_id;sensor_type;location;lat;lon;timestamp;pressure;altitude;pressure_sealevel;temperature;humidity
14117;BME280;7137;51.436;6.544;2023-07-13T00:00:44;101054.28;;;17.85;69.17
14117;BME280;7137;51.436;6.544;2023-07-13T00:03:47;101048.84;;;17.72;68.24
14117;BME280;7137;51.436;6.544;2023-07-13T00:06:49;101047.38;;;17.50;69.21
14117;BME280;7137;51.436;6.544;2023-07-13T00:09:50;101042.66;;;17.40;70.92
14117;BME280;7137;51.436;6.544;2023-07-13T00:12:52;101048.06;;;17.54;69.35
14117;BME280;7137;51.436;6.544;2023-07-13T00:15:56;101043.88;;;17.50;69.97
14117;BME280;7137;51.436;6.544;2023-07-13T00:19:00;101037.56;;;17.37;69.79
14117;BME280;7137;51.436;6.544;2023-07-13T00:22:01;101042.69;;;17.56;70.26
14117;BME280;7137;51.436;6.544;2023-07-13T00:25:04;101047.28;;;17.52;69.96
14117;BME280;7137;51.436;6.544;2023-07-13T00:28:07;101050.50;;;17.57;70.39
14117;BME280;7137;51.436;6.544;2023-07-13T00:31:08;101047.28;;;17.52;70.03
14117;BME280;7137;51.436;6.544;2023-07-13T00:34:11;101045.41;;;17.54;70.22
14117;BME280;7137;51.436;6.544;2023-07-13T00:37:13;101046.69;;;17.47;71.58
14117;BME280;7137;51.436;6.544;2023-07-13T00:40:16;101049.47;;;17.44;71.71
14117;BME280;7137;51.436;6.544;2023-07-13T00:43:19;101054.72;;;17.45;72.83
14117;BME280;7137;51.436;6.544;2023-07-13T00:46:24;101057.66;;;17.39;71.99
14117;BME280;7137;51.436;6.544;2023-07-13T00:49:29;101049.91;;;17.36;72.25
14117;BME280;7137;51.436;6.544;2023-07-13T00:52:33;101059.72;;;17.34;72.13
14117;BME280;7137;51.436;6.544;2023-07-13T00:55:36;101051.09;;;17.31;73.80
14117;BME280;7137;51.436;6.544;2023-07-13T00:58:38;101050.31;;;17.29;74.03
14117;BME280;7137;51.436;6.544;2023-07-13T01:01:39;101056.13;;;17.19;73.80
14117;BME280;7137;51.436;6.544;2023-07-13T01:04:43;101052.38;;;17.24;74.54
14117;BME280;7137;51.436;6.544;2023-07-13T01:07:45;101061.53;;;17.16;73.00
14117;BME280;7137;51.436;6.544;2023-07-13T01:10:53;101061.81;;;16.95;73.80
14117;BME280;7137;51.436;6.544;2023-07-13T01:13:54;101062.75;;;16.59;74.79
14117;BME280;7137;51.436;6.544;2023-07-13T01:16:56;101063.31;;;16.83;74.24
14117;BME280;7137;51.436;6.544;2023-07-13T01:20:01;101059.41;;;16.55;75.13
14117;BME280;7137;51.436;6.544;2023-07-13T01:23:06;101063.94;;;16.71;76.21
14117;BME280;7137;51.436;6.544;2023-07-13T01:26:08;101060.38;;;16.72;74.94
14117;BME280;7137;51.436;6.544;2023-07-13T01:29:10;101055.16;;;16.53;76.97
14117;BME280;7137;51.436;6.544;2023-07-13T01:32:13;101057.63;;;16.56;75.41
14117;BME280;7137;51.436;6.544;2023-07-13T01:35:15;101058.66;;;16.36;77.87
14117;BME280;7137;51.436;6.544;2023-07-13T01:38:20;101052.13;;;16.26;77.60
14117;BME280;7137;51.436;6.544;2023-07-13T01:41:22;101058.03;;;16.48;76.24
14117;BME280;7137;51.436;6.544;2023-07-13T01:44:24;101058.97;;;16.47;78.42
14117;BME280;7137;51.436;6.544;2023-07-13T01:47:26;101057.63;;;16.56;78.91
14117;BME280;7137;51.436;6.544;2023-07-13T01:50:28;101054.84;;;16.42;77.31
14117;BME280;7137;51.436;6.544;2023-07-13T01:53:31;101049.13;;;16.33;78.56
14117;BME280;7137;51.436;6.544;2023-07-13T01:56:32;101053.91;;;16.25;78.85
14117;BME280;7137;51.436;6.544;2023-07-13T01:59:34;101053.91;;;16.25;79.65
14117;BME280;7137;51.436;6.544;2023-07-13T02:02:35;101052.66;;;16.32;79.03
14117;BME280;7137;51.436;6.544;2023-07-13T02:05:37;101052.19;;;16.24;79.75
14117;BME280;7137;51.436;6.544;2023-07-13T02:08:40;101061.28;;;16.19;79.02
14117;BME280;7137;51.436;6.544;2023-07-13T02:11:42;101060.88;;;16.26;79.84
14117;BME280;7137;51.436;6.544;2023-07-13T02:14:43;101066.88;;;16.47;78.81
14117;BME280;7137;51.436;6.544;2023-07-13T02:17:46;101061.72;;;16.27;79.94
14117;BME280;7137;51.436;6.544;2023-07-13T02:20:47;101056.84;;;16.19;80.59
14117;BME280;7137;51.436;6.544;2023-07-13T02:23:50;101061.41;;;16.16;79.50
14117;BME280;7137;51.436;6.544;2023-07-13T02:26:52;101054.59;;;16.12;78.93
14117;BME280;7137;51.436;6.544;2023-07-13T02:29:54;101058.91;;;16.13;79.72
14117;BME280;7137;51.436;6.544;2023-07-13T02:32:55;101059.84;;;16.12;81.09
14117;BME280;7137;51.436;6.544;2023-07-13T02:35:57;101066.53;;;16.19;79.83
14117;BME280;7137;51.436;6.544;2023-07-13T02:39:03;101068.44;;;15.98;80.01
14117;BME280;7137;51.436;6.544;2023-07-13T02:42:06;101067.91;;;16.09;79.60
14117;BME280;7137;51.436;6.544;2023-07-13T02:45:08;101067.13;;;16.07;79.95
14117;BME280;7137;51.436;6.544;2023-07-13T02:48:10;101075.75;;;16.10;80.16
14117;BME280;7137;51.436;6.544;2023-07-13T02:51:12;101075.16;;;16.03;79.91
14117;BME280;7137;51.436;6.544;2023-07-13T02:54:14;101071.84;;;16.00;80.72
14117;BME280;7137;51.436;6.544;2023-07-13T02:57:16;101068.69;;;16.11;81.11
14117;BME280;7137;51.436;6.544;2023-07-13T03:00:18;101067.84;;;16.10;81.10
14117;BME280;7137;51.436;6.544;2023-07-13T03:03:19;101076.44;;;16.14;80.43
14117;BME280;7137;51.436;6.544;2023-07-13T03:06:21;101074.06;;;15.90;80.44
14117;BME280;7137;51.436;6.544;2023-07-13T03:09:24;101089.78;;;16.11;81.42
14117;BME280;7137;51.436;6.544;2023-07-13T03:12:26;101085.88;;;16.00;81.67
14117;BME280;7137;51.436;6.544;2023-07-13T03:15:27;101086.38;;;16.09;80.72
14117;BME280;7137;51.436;6.544;2023-07-13T03:18:29;101078.72;;;16.02;80.51
14117;BME280;7137;51.436;6.544;2023-07-13T03:21:31;101086.31;;;15.91;82.52
14117;BME280;7137;51.436;6.544;2023-07-13T03:24:34;101090.66;;;15.92;83.39
14117;BME280;7137;51.436;6.544;2023-07-13T03:27:38;101096.00;;;15.91;82.75
14117;BME280;7137;51.436;6.544;2023-07-13T03:30:39;101104.88;;;15.88;82.85
14117;BME280;7137;51.436;6.544;2023-07-13T03:33:41;101100.97;;;15.97;82.76
14117;BME280;7137;51.436;6.544;2023-07-13T03:36:43;101094.00;;;15.96;83.39
14117;BME280;7137;51.436;6.544;2023-07-13T03:39:46;101096.06;;;16.08;83.83
14117;BME280;7137;51.436;6.544;2023-07-13T03:42:47;101108.91;;;16.14;82.64
14117;BME280;7137;51.436;6.544;2023-07-13T03:45:49;101109.59;;;16.00;83.73
14117;BME280;7137;51.436;6.544;2023-07-13T03:48:51;101107.94;;;15.98;83.31
14117;BME280;7137;51.436;6.544;2023-07-13T03:51:52;101102.44;;;16.02;82.19
14117;BME280;7137;51.436;6.544;2023-07-13T03:54:55;101111.88;;;16.08;84.19
14117;BME280;7137;51.436;6.544;2023-07-13T03:58:01;101115.31;;;15.91;84.23
14117;BME280;7137;51.436;6.544;2023-07-13T04:01:22;101118.72;;;15.93;84.27
14117;BME280;7137;51.436;6.544;2023-07-13T04:04:25;101119.78;;;16.08;82.68
14117;BME280;7137;51.436;6.544;2023-07-13T04:07:26;101112.41;;;16.15;83.43
14117;BME280;7137;51.436;6.544;2023-07-13T04:10:28;101116.06;;;16.12;84.08
14117;BME280;7137;51.436;6.544;2023-07-13T04:13:30;101120.47;;;16.12;82.22
14117;BME280;7137;51.436;6.544;2023-07-13T04:16:33;101123.81;;;16.15;84.16
14117;BME280;7137;51.436;6.544;2023-07-13T04:19:34;101124.84;;;16.30;82.50
14117;BME280;7137;51.436;6.544;2023-07-13T04:22:36;101132.41;;;16.38;83.53
14117;BME280;7137;51.436;6.544;2023-07-13T04:25:37;101140.00;;;16.44;83.07
14117;BME280;7137;51.436;6.544;2023-07-13T04:28:39;101130.53;;;16.40;84.29
14117;BME280;7137;51.436;6.544;2023-07-13T04:31:42;101133.25;;;16.38;81.49
14117;BME280;7137;51.436;6.544;2023-07-13T04:34:43;101143.28;;;16.49;84.05
14117;BME280;7137;51.436;6.544;2023-07-13T04:37:45;101147.53;;;16.51;84.30
14117;BME280;7137;51.436;6.544;2023-07-13T04:40:47;101147.22;;;16.57;81.62
14117;BME280;7137;51.436;6.544;2023-07-13T04:43:49;101150.72;;;16.58;83.42
14117;BME280;7137;51.436;6.544;2023-07-13T04:46:53;101137.44;;;16.59;84.06
14117;BME280;7137;51.436;6.544;2023-07-13T04:49:55;101145.53;;;16.56;83.78
14117;BME280;7137;51.436;6.544;2023-07-13T04:52:56;101142.13;;;16.54;84.63
14117;BME280;7137;51.436;6.544;2023-07-13T04:55:59;101147.59;;;16.86;81.95
14117;BME280;7137;51.436;6.544;2023-07-13T04:59:01;101151.16;;;16.85;83.89
14117;BME280;7137;51.436;6.544;2023-07-13T05:02:05;101143.34;;;16.83;82.46
14117;BME280;7137;51.436;6.544;2023-07-13T05:05:07;101154.44;;;16.90;81.97
14117;BME280;7137;51.436;6.544;2023-07-13T05:08:09;101157.13;;;16.88;84.40
14117;BME280;7137;51.436;6.544;2023-07-13T05:11:10;101153.19;;;16.97;84.17
14117;BME280;7137;51.436;6.544;2023-07-13T05:14:12;101157.84;;;16.92;82.71
14117;BME280;7137;51.436;6.544;2023-07-13T05:17:15;101159.72;;;17.07;84.22
14117;BME280;7137;51.436;6.544;2023-07-13T05:20:18;101163.19;;;16.73;84.31
14117;BME280;7137;51.436;6.544;2023-07-13T05:23:20;101166.09;;;17.03;82.83
14117;BME280;7137;51.436;6.544;2023-07-13T05:26:21;101160.09;;;17.00;83.11
14117;BME280;7137;51.436;6.544;2023-07-13T05:29:23;101158.84;;;17.24;83.27
14117;BME280;7137;51.436;6.544;2023-07-13T05:32:26;101167.47;;;17.10;82.93
14117;BME280;7137;51.436;6.544;2023-07-13T05:35:28;101177.38;;;17.40;82.30
14117;BME280;7137;51.436;6.544;2023-07-13T05:38:29;101174.06;;;17.69;80.45
14117;BME280;7137;51.436;6.544;2023-07-13T05:41:31;101176.44;;;18.07;79.78
14117;BME280;7137;51.436;6.544;2023-07-13T05:44:32;101184.00;;;18.60;76.75
14117;BME280;7137;51.436;6.544;2023-07-13T05:47:35;101173.63;;;19.17;74.02
14117;BME280;7137;51.436;6.544;2023-07-13T05:50:37;101186.13;;;20.56;69.67
14117;BME280;7137;51.436;6.544;2023-07-13T05:53:38;101198.66;;;21.59;64.43
14117;BME280;7137;51.436;6.544;2023-07-13T05:56:40;101202.03;;;22.12;61.86
14117;BME280;7137;51.436;6.544;2023-07-13T05:59:42;101204.22;;;24.91;52.73
14117;BME280;7137;51.436;6.544;2023-07-13T06:02:45;101213.81;;;26.38;48.71
14117;BME280;7137;51.436;6.544;2023-07-13T06:05:47;101218.09;;;28.39;43.58
14117;BME280;7137;51.436;6.544;2023-07-13T06:08:49;101221.31;;;24.79;51.61
14117;BME280;7137;51.436;6.544;2023-07-13T06:11:50;101221.50;;;25.19;50.10
14117;BME280;7137;51.436;6.544;2023-07-13T06:14:52;101222.78;;;24.06;54.14
14117;BME280;7137;51.436;6.544;2023-07-13T06:17:55;101227.50;;;22.40;60.79
14117;BME280;7137;51.436;6.544;2023-07-13T06:20:56;101222.81;;;21.03;65.47
14117;BME280;7137;51.436;6.544;2023-07-13T06:23:58;101221.59;;;20.95;66.30
14117;BME280;7137;51.436;6.544;2023-07-13T06:26:59;101220.50;;;21.24;66.11
14117;BME280;7137;51.436;6.544;2023-07-13T06:30:01;101227.69;;;21.62;65.57
14117;BME280;7137;51.436;6.544;2023-07-13T06:33:04;101228.16;;;21.16;65.50
14117;BME280;7137;51.436;6.544;2023-07-13T06:36:07;101225.91;;;20.29;70.20
14117;BME280;7137;51.436;6.544;2023-07-13T06:39:09;101229.94;;;20.49;69.22
14117;BME280;7137;51.436;6.544;2023-07-13T06:42:11;101230.94;;;19.18;74.36
14117;BME280;7137;51.436;6.544;2023-07-13T06:45:12;101236.31;;;19.17;76.01
14117;BME280;7137;51.436;6.544;2023-07-13T06:48:16;101251.88;;;19.37;73.98
14117;BME280;7137;51.436;6.544;2023-07-13T06:51:18;101245.47;;;19.11;76.16
14117;BME280;7137;51.436;6.544;2023-07-13T06:54:19;101245.47;;;19.11;76.65
14117;BME280;7137;51.436;6.544;2023-07-13T06:57:21;101244.16;;;19.48;75.48
14117;BME280;7137;51.436;6.544;2023-07-13T07:00:23;101249.00;;;19.26;74.78
14117;BME280;7137;51.436;6.544;2023-07-13T07:03:26;101258.09;;;18.92;76.67
14117;BME280;7137;51.436;6.544;2023-07-13T07:06:27;101257.38;;;19.93;73.82
14117;BME280;7137;51.436;6.544;2023-07-13T07:09:29;101257.47;;;19.77;73.40
14117;BME280;7137;51.436;6.544;2023-07-13T07:12:31;101265.81;;;19.71;73.32
14117;BME280;7137;51.436;6.544;2023-07-13T07:15:34;101258.03;;;20.10;72.25
14117;BME280;7137;51.436;6.544;2023-07-13T07:18:37;101265.97;;;19.82;72.97
14117;BME280;7137;51.436;6.544;2023-07-13T07:21:39;101264.97;;;20.41;71.71
14117;BME280;7137;51.436;6.544;2023-07-13T07:24:40;101270.03;;;20.59;70.35
14117;BME280;7137;51.436;6.544;2023-07-13T07:27:43;101267.28;;;21.14;68.26
14117;BME280;7137;51.436;6.544;2023-07-13T07:30:45;101267.00;;;20.51;70.58
14117;BME280;7137;51.436;6.544;2023-07-13T07:33:48;101268.19;;;20.73;70.48
14117;BME280;7137;51.436;6.544;2023-07-13T07:36:49;101276.78;;;21.04;69.43
14117;BME280;7137;51.436;6.544;2023-07-13T07:39:51;101268.34;;;20.85;68.97
14117;BME280;7137;51.436;6.544;2023-07-13T07:42:53;101262.09;;;20.30;70.62
14117;BME280;7137;51.436;6.544;2023-07-13T07:45:54;101262.09;;;20.86;71.25
14117;BME280;7137;51.436;6.544;2023-07-13T07:48:57;101263.94;;;21.11;68.45
14117;BME280;7137;51.436;6.544;2023-07-13T07:51:59;101270.09;;;20.98;70.04
14117;BME280;7137;51.436;6.544;2023-07-13T07:55:00;101266.06;;;20.52;72.31
14117;BME280;7137;51.436;6.544;2023-07-13T07:58:02;101265.69;;;20.58;70.25
14117;BME280;7137;51.436;6.544;2023-07-13T08:01:05;101271.16;;;21.09;68.51
14117;BME280;7137;51.436;6.544;2023-07-13T08:04:08;101260.25;;;21.13;68.78
14117;BME280;7137;51.436;6.544;2023-07-13T08:07:10;101262.28;;;21.22;68.28
14117;BME280;7137;51.436;6.544;2023-07-13T08:10:11;101263.63;;;21.29;67.80
14117;BME280;7137;51.436;6.544;2023-07-13T08:13:13;101274.69;;;21.49;68.59
14117;BME280;7137;51.436;6.544;2023-07-13T08:16:14;101261.31;;;21.23;68.56
14117;BME280;7137;51.436;6.544;2023-07-13T08:19:17;101269.06;;;21.14;67.46
14117;BME280;7137;51.436;6.544;2023-07-13T08:22:19;101262.03;;;20.73;70.30
14117;BME280;7137;51.436;6.544;2023-07-13T08:25:20;101269.78;;;21.03;70.27
14117;BME280;7137;51.436;6.544;2023-07-13T08:28:23;101267.25;;;20.74;69.38
14117;BME280;7137;51.436;6.544;2023-07-13T08:31:24;101265.75;;;20.70;68.74
14117;BME280;7137;51.436;6.544;2023-07-13T08:34:27;101274.81;;;21.60;66.21
14117;BME280;7137;51.436;6.544;2023-07-13T08:37:29;101274.72;;;22.12;63.63
14117;BME280;7137;51.436;6.544;2023-07-13T08:40:30;101272.69;;;23.13;60.88
14117;BME280;7137;51.436;6.544;2023-07-13T08:43:35;101275.22;;;23.50;60.74
14117;BME280;7137;51.436;6.544;2023-07-13T08:46:38;101269.69;;;22.33;63.62
14117;BME280;7137;51.436;6.544;2023-07-13T08:49:44;101263.94;;;22.63;62.67
14117;BME280;7137;51.436;6.544;2023-07-13T08:52:46;101259.34;;;22.65;63.59
14117;BME280;7137;51.436;6.544;2023-07-13T08:55:50;101266.13;;;22.82;61.98
14117;BME280;7137;51.436;6.544;2023-07-13T08:58:57;101261.44;;;22.49;63.48
14117;BME280;7137;51.436;6.544;2023-07-13T09:02:23;101259.81;;;23.99;58.92
14117;BME280;7137;51.436;6.544;2023-07-13T09:05:31;101262.22;;;23.91;59.46
14117;BME280;7137;51.436;6.544;2023-07-13T09:08:49;101265.00;;;24.57;55.84
14117;BME280;7137;51.436;6.544;2023-07-13T09:12:00;101266.47;;;24.93;56.40
14117;BME280;7137;51.436;6.544;2023-07-13T09:15:04;101270.16;;;24.81;54.51
14117;BME280;7137;51.436;6.544;2023-07-13T09:18:11;101270.50;;;24.11;55.20
14117;BME280;7137;51.436;6.544;2023-07-13T09:21:21;101277.03;;;23.38;59.38
14117;BME280;7137;51.436;6.544;2023-07-13T09:24:33;101273.53;;;23.37;62.11
14117;BME280;7137;51.436;6.544;2023-07-13T09:27:39;101271.78;;;23.72;58.26
14117;BME280;7137;51.436;6.544;2023-07-13T09:30:51;101284.09;;;26.21;51.06
14117;BME280;7137;51.436;6.544;2023-07-13T09:33:53;101274.28;;;27.19;50.11
14117;BME280;7137;51.436;6.544;2023-07-13T09:36:56;101269.44;;;26.25;51.58
14117;BME280;7137;51.436;6.544;2023-07-13T09:39:59;101271.81;;;24.93;53.75
14117;BME280;7137;51.436;6.544;2023-07-13T09:43:05;101273.59;;;24.61;54.47
14117;BME280;7137;51.436;6.544;2023-07-13T09:46:20;101264.63;;;25.46;51.36
14117;BME280;7137;51.436;6.544;2023-07-13T09:49:23;101269.66;;;26.43;51.33
14117;BME280;7137;51.436;6.544;2023-07-13T09:52:38;101269.41;;;27.71;48.09
14117;BME280;7137;51.436;6.544;2023-07-13T09:55:43;101271.94;;;28.92;44.73
14117;BME280;7137;51.436;6.544;2023-07-13T09:58:45;101280.50;;;30.78;39.79
14117;BME280;7137;51.436;6.544;2023-07-13T10:01:47;101279.56;;;27.87;47.36
14117;BME280;7137;51.436;6.544;2023-07-13T10:04:55;101276.38;;;25.97;50.06
14117;BME280;7137;51.436;6.544;2023-07-13T10:07:59;101282.91;;;26.04;49.65
14117;BME280;7137;51.436;6.544;2023-07-13T10:11:09;101279.88;;;26.68;48.63
14117;BME280;7137;51.436;6.544;2023-07-13T10:14:14;101282.78;;;26.36;46.58
14117;BME280;7137;51.436;6.544;2023-07-13T10:17:18;101267.94;;;25.71;49.63
14117;BME280;7137;51.436;6.544;2023-07-13T10:20:22;101268.88;;;26.71;48.45
14117;BME280;7137;51.436;6.544;2023-07-13T10:23:27;101271.88;;;25.14;51.29
14117;BME280;7137;51.436;6.544;2023-07-13T10:26:33;101274.22;;;26.71;46.38
14117;BME280;7137;51.436;6.544;2023-07-13T10:29:37;101279.50;;;26.02;50.44
14117;BME280;7137;51.436;6.544;2023-07-13T10:32:40;101278.59;;;26.22;50.49
14117;BME280;7137;51.436;6.544;2023-07-13T10:35:43;101277.16;;;24.50;51.55
14117;BME280;7137;51.436;6.544;2023-07-13T10:38:49;101279.91;;;25.56;52.88
14117;BME280;7137;51.436;6.544;2023-07-13T10:41:54;101278.34;;;25.53;50.26
14117;BME280;7137;51.436;6.544;2023-07-13T10:44:56;101282.38;;;26.50;47.77
14117;BME280;7137;51.436;6.544;2023-07-13T10:47:58;101283.66;;;26.56;50.28
14117;BME280;7137;51.436;6.544;2023-07-13T10:51:00;101287.78;;;26.29;49.36
14117;BME280;7137;51.436;6.544;2023-07-13T10:54:17;101294.22;;;25.66;47.39
14117;BME280;7137;51.436;6.544;2023-07-13T10:57:20;101283.72;;;25.74;51.15
14117;BME280;7137;51.436;6.544;2023-07-13T11:00:22;101284.63;;;25.84;49.21
14117;BME280;7137;51.436;6.544;2023-07-13T11:03:27;101270.59;;;25.92;47.61
14117;BME280;7137;51.436;6.544;2023-07-13T11:06:36;101280.06;;;25.75;49.61
14117;BME280;7137;51.436;6.544;2023-07-13T11:09:41;101282.78;;;25.43;51.87
14117;BME280;7137;51.436;6.544;2023-07-13T11:12:53;101279.09;;;25.76;48.37
14117;BME280;7137;51.436;6.544;2023-07-13T11:15:55;101259.94;;;25.81;46.51
14117;BME280;7137;51.436;6.544;2023-07-13T11:19:24;101266.44;;;26.09;47.24
14117;BME280;7137;51.436;6.544;2023-07-13T11:22:42;101270.78;;;26.40;45.69
14117;BME280;7137;51.436;6.544;2023-07-13T11:25:46;101270.22;;;26.37;46.45
14117;BME280;7137;51.436;6.544;2023-07-13T11:28:49;101268.63;;;25.52;46.36
14117;BME280;7137;51.436;6.544;2023-07-13T11:31:53;101262.06;;;25.35;46.89
14117;BME280;7137;51.436;6.544;2023-07-13T11:34:54;101254.16;;;26.06;46.34
14117;BME280;7137;51.436;6.544;2023-07-13T11:37:56;101259.56;;;25.43;47.31
14117;BME280;7137;51.436;6.544;2023-07-13T11:41:02;101256.22;;;25.30;46.45
14117;BME280;7137;51.436;6.544;2023-07-13T11:44:14;101260.22;;;26.18;46.07
14117;BME280;7137;51.436;6.544;2023-07-13T11:47:18;101256.59;;;25.88;46.49
14117;BME280;7137;51.436;6.544;2023-07-13T11:50:23;101261.16;;;25.97;46.84
14117;BME280;7137;51.436;6.544;2023-07-13T11:53:28;101266.09;;;25.51;45.09
14117;BME280;7137;51.436;6.544;2023-07-13T11:56:32;101262.09;;;25.66;44.79
14117;BME280;7137;51.436;6.544;2023-07-13T11:59:38;101258.00;;;26.23;44.77
14117;BME280;7137;51.436;6.544;2023-07-13T12:02:43;101249.19;;;26.01;44.03
14117;BME280;7137;51.436;6.544;2023-07-13T12:05:59;101254.03;;;25.77;44.78
14117;BME280;7137;51.436;6.544;2023-07-13T12:09:03;101260.25;;;25.87;45.41
14117;BME280;7137;51.436;6.544;2023-07-13T12:12:17;101252.28;;;25.97;44.23
14117;BME280;7137;51.436;6.544;2023-07-13T12:15:20;101254.28;;;25.53;45.00
14117;BME280;7137;51.436;6.544;2023-07-13T12:18:28;101252.66;;;24.77;46.57
14117;BME280;7137;51.436;6.544;2023-07-13T12:21:33;101248.53;;;23.96;47.42
14117;BME280;7137;51.436;6.544;2023-07-13T12:24:36;101249.47;;;23.61;49.49
14117;BME280;7137;51.436;6.544;2023-07-13T12:27:40;101246.59;;;24.09;48.23
14117;BME280;7137;51.436;6.544;2023-07-13T12:30:48;101260.16;;;24.17;48.65
14117;BME280;7137;51.436;6.544;2023-07-13T12:33:56;101277.97;;;23.72;55.21
14117;BME280;7137;51.436;6.544;2023-07-13T12:37:00;101277.94;;;22.78;63.76
14117;BME280;7137;51.436;6.544;2023-07-13T12:40:03;101294.38;;;22.72;64.01
14117;BME280;7137;51.436;6.544;2023-07-13T12:43:12;101278.78;;;22.78;58.80
14117;BME280;7137;51.436;6.544;2023-07-13T12:46:17;101281.63;;;23.01;52.84
14117;BME280;7137;51.436;6.544;2023-07-13T12:49:24;101283.97;;;23.52;52.23
14117;BME280;7137;51.436;6.544;2023-07-13T12:52:29;101285.97;;;23.72;51.35
14117;BME280;7137;51.436;6.544;2023-07-13T12:55:42;101279.56;;;24.64;50.08
14117;BME280;7137;51.436;6.544;2023-07-13T12:58:47;101283.81;;;24.67;48.24
14117;BME280;7137;51.436;6.544;2023-07-13T13:01:54;101279.63;;;24.74;49.06
14117;BME280;7137;51.436;6.544;2023-07-13T13:04:56;101273.66;;;24.38;49.75
14117;BME280;7137;51.436;6.544;2023-07-13T13:07:58;101273.28;;;24.43;48.71
14117;BME280;7137;51.436;6.544;2023-07-13T13:11:01;101272.53;;;25.27;52.09
14117;BME280;7137;51.436;6.544;2023-07-13T13:14:04;101272.03;;;25.54;48.76
14117;BME280;7137;51.436;6.544;2023-07-13T13:17:15;101269.09;;;25.78;46.82
14117;BME280;7137;51.436;6.544;2023-07-13T13:20:21;101261.06;;;25.36;46.12
14117;BME280;7137;51.436;6.544;2023-07-13T13:23:23;101281.81;;;25.65;45.76
14117;BME280;7137;51.436;6.544;2023-07-13T13:26:25;101275.31;;;25.79;42.60
14117;BME280;7137;51.436;6.544;2023-07-13T13:29:31;101276.59;;;25.42;44.83
14117;BME280;7137;51.436;6.544;2023-07-13T13:32:33;101276.25;;;25.57;45.09
14117;BME280;7137;51.436;6.544;2023-07-13T13:35:34;101280.59;;;25.69;43.47
14117;BME280;7137;51.436;6.544;2023-07-13T13:38:36;101280.31;;;25.51;42.28
14117;BME280;7137;51.436;6.544;2023-07-13T13:41:38;101284.91;;;25.81;41.30
14117;BME280;7137;51.436;6.544;2023-07-13T13:44:41;101285.19;;;25.88;41.09
14117;BME280;7137;51.436;6.544;2023-07-13T13:47:43;101290.25;;;26.12;41.62
14117;BME280;7137;51.436;6.544;2023-07-13T13:50:46;101285.59;;;25.41;43.96
14117;BME280;7137;51.436;6.544;2023-07-13T13:53:48;101294.47;;;24.78;44.57
14117;BME280;7137;51.436;6.544;2023-07-13T13:56:51;101305.91;;;24.57;55.37
14117;BME280;7137;51.436;6.544;2023-07-13T13:59:54;101303.84;;;23.83;59.32
14117;BME280;7137;51.436;6.544;2023-07-13T14:02:56;101290.69;;;23.33;61.61
14117;BME280;7137;51.436;6.544;2023-07-13T14:05:58;101301.91;;;23.15;60.89
14117;BME280;7137;51.436;6.544;2023-07-13T14:09:00;101295.63;;;22.79;61.50
14117;BME280;7137;51.436;6.544;2023-07-13T14:12:03;101296.31;;;22.70;60.53
14117;BME280;7137;51.436;6.544;2023-07-13T14:15:13;101297.41;;;22.67;60.58
14117;BME280;7137;51.436;6.544;2023-07-13T14:18:17;101297.31;;;22.80;61.22
14117;BME280;7137;51.436;6.544;2023-07-13T14:21:21;101294.31;;;22.97;60.75
14117;BME280;7137;51.436;6.544;2023-07-13T14:24:23;101299.34;;;23.37;59.11
14117;BME280;7137;51.436;6.544;2023-07-13T14:27:25;101302.13;;;23.71;56.85
14117;BME280;7137;51.436;6.544;2023-07-13T14:30:28;101294.63;;;23.40;57.30
14117;BME280;7137;51.436;6.544;2023-07-13T14:33:29;101295.31;;;23.07;58.20
14117;BME280;7137;51.436;6.544;2023-07-13T14:36:32;101298.56;;;23.24;58.78
14117;BME280;7137;51.436;6.544;2023-07-13T14:39:35;101296.81;;;23.82;57.31
14117;BME280;7137;51.436;6.544;2023-07-13T14:42:36;101296.44;;;24.20;56.72
14117;BME280;7137;51.436;6.544;2023-07-13T14:45:42;101288.06;;;23.91;55.66
14117;BME280;7137;51.436;6.544;2023-07-13T14:48:45;101327.06;;;23.34;56.87
14117;BME280;7137;51.436;6.544;2023-07-13T14:51:47;101323.47;;;22.38;66.03
14117;BME280;7137;51.436;6.544;2023-07-13T14:54:49;101330.72;;;21.19;75.68
14117;BME280;7137;51.436;6.544;2023-07-13T14:57:50;101325.28;;;20.09;82.55
14117;BME280;7137;51.436;6.544;2023-07-13T15:00:53;101337.78;;;19.79;82.36
14117;BME280;7137;51.436;6.544;2023-07-13T15:03:58;101334.03;;;19.37;84.99
14117;BME280;7137;51.436;6.544;2023-07-13T15:07:01;101323.72;;;19.33;83.71
14117;BME280;7137;51.436;6.544;2023-07-13T15:10:08;101327.34;;;19.46;84.35
14117;BME280;7137;51.436;6.544;2023-07-13T15:13:16;101328.28;;;19.15;84.54
14117;BME280;7137;51.436;6.544;2023-07-13T15:16:22;101330.44;;;19.38;84.94
14117;BME280;7137;51.436;6.544;2023-07-13T15:19:25;101327.41;;;19.60;83.05
14117;BME280;7137;51.436;6.544;2023-07-13T15:22:27;101333.56;;;20.05;86.06
14117;BME280;7137;51.436;6.544;2023-07-13T15:25:29;101323.78;;;20.34;83.77
14117;BME280;7137;51.436;6.544;2023-07-13T15:28:33;101332.31;;;20.67;79.65
14117;BME280;7137;51.436;6.544;2023-07-13T15:31:37;101337.84;;;21.18;80.19
14117;BME280;7137;51.436;6.544;2023-07-13T15:34:39;101339.56;;;21.46;82.07
14117;BME280;7137;51.436;6.544;2023-07-13T15:37:41;101347.72;;;21.70;77.66
14117;BME280;7137;51.436;6.544;2023-07-13T15:40:43;101342.69;;;21.78;78.21
14117;BME280;7137;51.436;6.544;2023-07-13T15:43:45;101344.97;;;21.84;78.34
14117;BME280;7137;51.436;6.544;2023-07-13T15:46:49;101350.47;;;21.29;78.23
14117;BME280;7137;51.436;6.544;2023-07-13T15:49:50;101342.81;;;20.83;80.49
14117;BME280;7137;51.436;6.544;2023-07-13T15:52:53;101340.56;;;21.04;81.47
14117;BME280;7137;51.436;6.544;2023-07-13T15:55:56;101342.41;;;20.89;80.92
14117;BME280;7137;51.436;6.544;2023-07-13T15:58:58;101336.00;;;20.65;79.85
14117;BME280;7137;51.436;6.544;2023-07-13T16:02:03;101331.94;;;20.59;79.89
14117;BME280;7137;51.436;6.544;2023-07-13T16:05:07;101340.25;;;21.09;81.63
14117;BME280;7137;51.436;6.544;2023-07-13T16:08:18;101335.47;;;21.28;79.66
14117;BME280;7137;51.436;6.544;2023-07-13T16:11:23;101337.34;;;21.40;79.47